createdAt,value
2022-12-11T00:02:00.647Z,42.54
2022-12-11T00:04:27.822Z,42.52
2022-12-11T00:06:54.936Z,42.61
2022-12-11T00:09:22.148Z,42.50
2022-12-11T00:11:50.641Z,42.37
2022-12-11T00:14:17.793Z,42.33
2022-12-11T00:16:45.178Z,42.38
2022-12-11T00:19:12.299Z,42.39
2022-12-11T00:21:39.411Z,42.39
2022-12-11T00:24:07.122Z,42.35
2022-12-11T00:26:34.239Z,42.19
2022-12-11T00:29:02.833Z,42.25
2022-12-11T00:31:29.991Z,42.16
2022-12-11T00:33:57.129Z,42.21
2022-12-11T00:36:26.334Z,42.07
2022-12-11T00:38:54.009Z,42.15
2022-12-11T00:41:21.884Z,42.12
2022-12-11T00:43:49.052Z,42.18
2022-12-11T00:46:17.627Z,42.16
2022-12-11T00:48:44.979Z,42.19
2022-12-11T00:51:12.295Z,42.18
2022-12-11T00:53:39.594Z,42.23
2022-12-11T00:56:11.704Z,42.20
2022-12-11T00:58:39.056Z,42.16
2022-12-11T01:01:08.422Z,42.31
2022-12-11T01:03:37.184Z,42.12
2022-12-11T01:06:05.279Z,42.35
2022-12-11T01:08:38.110Z,42.03
2022-12-11T01:11:08.419Z,42.03
2022-12-11T01:13:35.679Z,42.06
2022-12-11T01:16:07.363Z,41.90
2022-12-11T01:18:34.854Z,41.82
2022-12-11T01:21:07.216Z,41.86
2022-12-11T01:23:34.459Z,42.01
2022-12-11T01:26:06.152Z,41.92
2022-12-11T01:28:33.323Z,42.05
2022-12-11T01:31:00.566Z,41.90
2022-12-11T01:33:28.166Z,42.10
2022-12-11T01:35:55.265Z,42.04
2022-12-11T01:38:23.702Z,42.04
2022-12-11T01:40:51.402Z,41.99
2022-12-11T01:43:18.895Z,41.92
2022-12-11T01:45:47.758Z,41.98
2022-12-11T01:48:19.676Z,42.00
2022-12-11T01:50:50.606Z,42.11
2022-12-11T01:53:22.741Z,42.06
2022-12-11T01:55:54.889Z,42.08
2022-12-11T01:58:26.287Z,41.98
2022-12-11T02:00:54.545Z,41.80
2022-12-11T02:03:22.257Z,41.88
2022-12-11T02:05:50.042Z,41.71
2022-12-11T02:08:17.426Z,41.66
2022-12-11T02:10:56.240Z,41.70
2022-12-11T02:13:29.876Z,41.69
2022-12-11T02:16:05.086Z,41.77
2022-12-11T02:18:38.847Z,41.80
2022-12-11T02:21:13.110Z,41.67
2022-12-11T02:23:53.590Z,41.80
2022-12-11T02:26:41.879Z,41.73
2022-12-11T02:29:18.909Z,41.81
2022-12-11T02:31:52.046Z,41.77
2022-12-11T02:34:27.196Z,41.69
2022-12-11T02:37:00.475Z,41.87
2022-12-11T02:39:29.264Z,41.83
2022-12-11T02:41:56.816Z,41.76
2022-12-11T02:44:30.277Z,41.93
2022-12-11T02:46:59.154Z,41.70
2022-12-11T02:49:28.043Z,41.69
2022-12-11T02:51:57.930Z,41.72
2022-12-11T02:54:28.467Z,41.62
2022-12-11T02:57:02.571Z,41.71
2022-12-11T02:59:35.780Z,41.80
2022-12-11T03:02:04.072Z,41.51
2022-12-11T03:04:33.452Z,41.58
2022-12-11T03:07:04.651Z,41.61
2022-12-11T03:09:32.013Z,41.54
2022-12-11T03:11:59.124Z,41.55
2022-12-11T03:14:26.292Z,41.60
2022-12-11T03:17:00.933Z,41.75
2022-12-11T03:19:34.462Z,41.58
2022-12-11T03:22:10.340Z,41.59
2022-12-11T03:24:41.471Z,41.73
2022-12-11T03:27:15.414Z,41.84
2022-12-11T03:29:48.693Z,41.54
2022-12-11T03:32:21.903Z,41.66
2022-12-11T03:34:58.225Z,41.78
2022-12-11T03:37:31.410Z,41.70
2022-12-11T03:40:02.412Z,41.72
2022-12-11T03:42:31.526Z,41.90
2022-12-11T03:44:59.893Z,41.54
2022-12-11T03:47:29.955Z,41.64
2022-12-11T03:49:59.775Z,41.61
2022-12-11T03:52:28.323Z,41.40
2022-12-11T03:55:00.406Z,41.56
2022-12-11T03:57:32.285Z,41.51
2022-12-11T03:59:59.571Z,41.02
2022-12-11T04:02:28.038Z,40.76
2022-12-11T04:04:55.131Z,40.40
2022-12-11T04:07:22.710Z,40.57
2022-12-11T04:09:49.834Z,40.47
2022-12-11T04:12:17.000Z,40.45
2022-12-11T04:14:44.235Z,40.37
2022-12-11T04:17:11.748Z,40.49
2022-12-11T04:19:40.204Z,40.55
2022-12-11T04:22:07.460Z,40.37
2022-12-11T04:24:34.691Z,40.41
2022-12-11T04:27:01.839Z,40.36
2022-12-11T04:29:28.964Z,40.58
2022-12-11T04:31:56.091Z,40.84
2022-12-11T04:34:23.358Z,40.97
2022-12-11T04:36:51.838Z,40.91
2022-12-11T04:39:18.967Z,41.14
2022-12-11T04:41:46.076Z,40.97
2022-12-11T04:44:13.231Z,40.96
2022-12-11T04:46:40.447Z,41.01
2022-12-11T04:49:07.600Z,41.18
2022-12-11T04:51:34.704Z,41.30
2022-12-11T04:54:03.254Z,41.20
2022-12-11T04:56:30.427Z,41.15
2022-12-11T04:58:57.536Z,41.36
2022-12-11T05:01:24.695Z,41.47
2022-12-11T05:03:51.861Z,41.25
2022-12-11T05:06:19.145Z,41.15
2022-12-11T05:08:46.260Z,41.17
2022-12-11T05:11:15.682Z,41.30
2022-12-11T05:13:43.435Z,41.09
2022-12-11T05:16:13.257Z,40.96
2022-12-11T05:18:40.689Z,41.38
2022-12-11T05:21:10.946Z,41.39
2022-12-11T05:23:38.856Z,41.31
2022-12-11T05:26:08.673Z,41.46
2022-12-11T05:28:38.883Z,41.67
2022-12-11T05:31:07.865Z,41.36
2022-12-11T05:33:35.577Z,41.36
2022-12-11T05:36:03.316Z,41.50
2022-12-11T05:38:30.636Z,41.33
2022-12-11T05:40:58.563Z,41.27
2022-12-11T05:43:27.205Z,41.22
2022-12-11T05:45:56.874Z,41.27
2022-12-11T05:48:23.986Z,41.19
2022-12-11T05:50:57.895Z,41.21
2022-12-11T05:53:25.163Z,41.20
2022-12-11T05:55:52.530Z,41.26
2022-12-11T05:58:20.722Z,41.37
2022-12-11T06:00:48.199Z,41.09
2022-12-11T06:03:16.810Z,41.33
2022-12-11T06:05:44.012Z,41.17
2022-12-11T06:08:11.150Z,41.22
2022-12-11T06:10:38.323Z,41.26
2022-12-11T06:13:05.489Z,41.29
2022-12-11T06:15:32.859Z,41.43
2022-12-11T06:17:59.981Z,41.32
2022-12-11T06:20:31.014Z,41.49
2022-12-11T06:22:58.116Z,41.35
2022-12-11T06:25:25.264Z,41.55
2022-12-11T06:27:52.482Z,41.29
2022-12-11T06:30:19.786Z,44.19
2022-12-11T06:32:46.909Z,44.38
2022-12-11T06:35:14.115Z,43.75
2022-12-11T06:37:42.603Z,44.09
2022-12-11T06:40:10.955Z,39.52
2022-12-11T06:42:38.308Z,37.39
2022-12-11T06:45:06.635Z,37.45
2022-12-11T06:47:33.743Z,37.24
2022-12-11T06:50:00.903Z,37.06
2022-12-11T06:52:28.682Z,37.28
2022-12-11T06:54:57.324Z,37.37
2022-12-11T06:57:24.547Z,37.46
2022-12-11T06:59:51.645Z,37.44
2022-12-11T07:02:19.917Z,37.24
2022-12-11T07:04:51.842Z,37.27
2022-12-11T07:07:21.978Z,37.26
2022-12-11T07:09:49.151Z,37.35
2022-12-11T07:12:18.131Z,37.21
2022-12-11T07:14:45.239Z,37.31
2022-12-11T07:17:12.620Z,37.77
2022-12-11T07:19:39.725Z,37.80
2022-12-11T07:22:07.161Z,38.08
2022-12-11T07:24:34.525Z,38.21
2022-12-11T07:27:01.705Z,38.13
2022-12-11T07:29:30.216Z,38.25
2022-12-11T07:31:57.493Z,38.35
2022-12-11T07:34:24.650Z,38.64
2022-12-11T07:36:51.785Z,39.97
2022-12-11T07:39:18.975Z,38.93
2022-12-11T07:41:46.087Z,39.32
2022-12-11T07:44:13.218Z,38.82
2022-12-11T07:46:41.742Z,38.58
2022-12-11T07:49:08.855Z,38.68
2022-12-11T07:51:37.739Z,38.72
2022-12-11T07:54:07.734Z,39.11
2022-12-11T07:56:34.959Z,39.27
2022-12-11T07:59:03.260Z,39.71
2022-12-11T08:01:32.701Z,39.74
2022-12-11T08:04:01.201Z,39.43
2022-12-11T08:06:30.622Z,39.78
2022-12-11T08:08:59.213Z,40.47
2022-12-11T08:11:26.902Z,43.11
2022-12-11T08:13:54.969Z,42.07
2022-12-11T08:16:22.821Z,40.96
2022-12-11T08:18:50.046Z,40.80
2022-12-11T08:21:21.001Z,40.63
2022-12-11T08:23:49.102Z,40.75
2022-12-11T08:26:19.417Z,40.56
2022-12-11T08:28:46.548Z,40.45
2022-12-11T08:31:15.701Z,41.81
2022-12-11T08:33:43.245Z,41.88
2022-12-11T08:36:12.754Z,41.30
2022-12-11T08:38:41.928Z,44.66
2022-12-11T08:41:10.187Z,44.60
2022-12-11T08:43:37.794Z,47.24
2022-12-11T08:46:05.534Z,44.11
2022-12-11T08:48:32.891Z,44.50
2022-12-11T08:51:00.749Z,44.00
2022-12-11T08:53:28.396Z,76.03
2022-12-11T08:56:01.188Z,69.48
2022-12-11T08:58:28.377Z,78.00
2022-12-11T09:00:55.579Z,81.69
2022-12-11T09:03:22.942Z,71.12
2022-12-11T09:05:50.173Z,74.76
2022-12-11T09:08:17.442Z,76.08
2022-12-11T09:10:44.636Z,80.45
2022-12-11T09:13:13.142Z,68.12
2022-12-11T09:15:41.086Z,58.14
2022-12-11T09:18:08.453Z,60.40
2022-12-11T09:20:35.574Z,61.15
2022-12-11T09:23:02.686Z,58.30
2022-12-11T09:25:29.890Z,57.90
2022-12-11T09:27:57.037Z,54.02
2022-12-11T09:30:25.496Z,53.91
2022-12-11T09:32:52.608Z,53.67
2022-12-11T09:35:19.922Z,53.45
2022-12-11T09:37:47.113Z,53.20
2022-12-11T09:40:14.484Z,53.37
2022-12-11T09:42:50.896Z,53.43
2022-12-11T09:45:18.307Z,51.50
2022-12-11T09:47:50.229Z,49.39
2022-12-11T09:50:22.871Z,48.85
2022-12-11T09:52:59.841Z,48.10
2022-12-11T09:55:39.039Z,47.79
2022-12-11T09:58:16.690Z,47.64
2022-12-11T10:00:47.623Z,47.15
2022-12-11T10:03:49.634Z,47.84
2022-12-11T10:06:24.007Z,48.44
2022-12-11T10:09:03.316Z,48.96
2022-12-11T10:11:49.200Z,59.55
2022-12-11T10:14:28.917Z,50.96
2022-12-11T10:17:02.313Z,49.38
2022-12-11T10:19:32.768Z,50.16
2022-12-11T10:22:00.863Z,49.98
2022-12-11T10:25:09.537Z,50.10
2022-12-11T10:27:28.185Z,50.01
2022-12-11T10:30:05.452Z,49.90
2022-12-11T10:32:40.994Z,49.89
2022-12-11T10:35:19.865Z,49.83
2022-12-11T10:37:46.999Z,49.84
2022-12-11T10:40:14.499Z,49.93
2022-12-11T10:42:52.407Z,49.76
2022-12-11T10:45:19.649Z,49.64
2022-12-11T10:47:46.775Z,49.39
2022-12-11T10:50:24.370Z,49.29
2022-12-11T10:52:52.267Z,49.38
2022-12-11T10:55:22.238Z,48.74
2022-12-11T10:57:56.019Z,48.75
2022-12-11T11:00:30.772Z,49.13
2022-12-11T11:02:58.636Z,49.05
2022-12-11T11:05:33.088Z,48.66
2022-12-11T11:08:11.227Z,48.59
2022-12-11T11:10:38.454Z,48.16
2022-12-11T11:13:05.557Z,48.01
2022-12-11T11:15:33.114Z,47.99
2022-12-11T11:18:11.283Z,47.69
2022-12-11T11:20:46.293Z,47.82
2022-12-11T11:23:16.265Z,47.62
2022-12-11T11:25:50.961Z,47.29
2022-12-11T11:28:21.388Z,47.33
2022-12-11T11:30:59.434Z,47.02
2022-12-11T11:33:27.417Z,47.46
2022-12-11T11:35:57.517Z,47.11
2022-12-11T11:38:28.846Z,47.13
2022-12-11T11:41:07.699Z,46.92
2022-12-11T11:43:43.343Z,47.05
2022-12-11T11:46:14.833Z,46.92
2022-12-11T11:48:50.928Z,46.94
2022-12-11T11:51:24.902Z,46.98
2022-12-11T11:53:55.629Z,47.01
2022-12-11T11:56:26.538Z,46.61
2022-12-11T11:59:11.803Z,46.78
2022-12-11T12:01:41.571Z,47.04
2022-12-11T12:04:09.622Z,46.84
2022-12-11T12:06:53.989Z,46.85
2022-12-11T12:09:34.182Z,47.30
2022-12-11T12:12:12.300Z,47.00
2022-12-11T12:14:58.299Z,47.05
2022-12-11T12:17:32.574Z,46.87
2022-12-11T12:20:09.304Z,46.63
2022-12-11T12:22:52.937Z,46.61
2022-12-11T12:25:26.803Z,46.69
2022-12-11T12:27:59.473Z,46.68
2022-12-11T12:30:30.340Z,46.56
2022-12-11T12:33:15.305Z,46.45
2022-12-11T12:35:55.707Z,46.40
2022-12-11T12:38:35.375Z,46.34
2022-12-11T12:41:09.824Z,46.30
2022-12-11T12:43:53.175Z,46.38
2022-12-11T12:46:28.941Z,46.12
2022-12-11T12:48:58.840Z,46.13
2022-12-11T12:51:26.796Z,46.38
2022-12-11T12:53:59.175Z,45.98
2022-12-11T12:56:29.132Z,46.23
2022-12-11T12:58:56.307Z,46.04
2022-12-11T13:01:25.854Z,45.86
2022-12-11T13:03:56.205Z,46.29
2022-12-11T13:06:32.619Z,45.68
2022-12-11T13:09:12.312Z,45.66
2022-12-11T13:11:39.586Z,45.72
2022-12-11T13:14:21.685Z,45.67
2022-12-11T13:16:50.745Z,45.99
2022-12-11T13:19:26.846Z,46.01
2022-12-11T13:21:58.720Z,45.61
2022-12-11T13:24:29.232Z,45.64
2022-12-11T13:26:56.428Z,45.69
2022-12-11T13:29:32.752Z,45.37
2022-12-11T13:32:02.008Z,45.39
2022-12-11T13:34:33.370Z,45.44
2022-12-11T13:37:02.343Z,45.39
2022-12-11T13:39:32.947Z,45.18
2022-12-11T13:42:02.702Z,45.42
2022-12-11T13:44:33.463Z,45.78
2022-12-11T13:47:03.353Z,45.61
2022-12-11T13:49:35.125Z,45.69
2022-12-11T13:52:03.108Z,45.63
2022-12-11T13:54:34.413Z,45.93
2022-12-11T13:57:14.895Z,45.92
2022-12-11T13:59:43.615Z,45.90
2022-12-11T14:02:18.003Z,45.67
2022-12-11T14:04:47.774Z,45.59
2022-12-11T14:07:23.627Z,45.76
2022-12-11T14:10:01.962Z,45.58
2022-12-11T14:12:30.622Z,45.57
2022-12-11T14:15:00.863Z,45.35
2022-12-11T14:17:30.225Z,45.44
2022-12-11T14:20:00.315Z,45.42
2022-12-11T14:22:29.687Z,45.46
2022-12-11T14:24:59.964Z,45.51
2022-12-11T14:27:27.743Z,45.27
2022-12-11T14:29:55.638Z,45.23
2022-12-11T14:32:31.367Z,45.04
2022-12-11T14:35:00.304Z,45.34
2022-12-11T14:37:29.058Z,45.64
2022-12-11T14:40:02.437Z,45.51
2022-12-11T14:42:33.791Z,45.55
2022-12-11T14:45:06.364Z,45.45
2022-12-11T14:47:38.872Z,45.46
2022-12-11T14:50:11.606Z,45.32
2022-12-11T14:52:42.162Z,45.18
2022-12-11T14:55:16.573Z,45.22
2022-12-11T14:57:47.785Z,44.83
2022-12-11T15:00:26.894Z,45.18
2022-12-11T15:02:58.602Z,45.08
2022-12-11T15:05:26.011Z,45.14
2022-12-11T15:07:56.548Z,44.69
2022-12-11T15:10:32.359Z,44.89
2022-12-11T15:12:59.635Z,44.85
2022-12-11T15:15:29.571Z,44.95
2022-12-11T15:17:57.099Z,45.29
2022-12-11T15:20:27.146Z,45.23
2022-12-11T15:22:57.761Z,45.44
2022-12-11T15:25:28.162Z,45.10
2022-12-11T15:27:57.250Z,45.30
2022-12-11T15:30:27.135Z,45.03
2022-12-11T15:33:03.105Z,45.13
2022-12-11T15:35:30.517Z,45.65
2022-12-11T15:37:58.881Z,46.17
2022-12-11T15:40:28.036Z,45.93
2022-12-11T15:42:56.094Z,45.23
2022-12-11T15:45:25.792Z,44.85
2022-12-11T15:47:53.101Z,44.97
2022-12-11T15:50:22.485Z,44.85
2022-12-11T15:52:50.962Z,44.70
2022-12-11T15:55:19.644Z,44.65
2022-12-11T15:57:52.101Z,44.74
2022-12-11T16:00:20.939Z,44.46
2022-12-11T16:02:48.252Z,44.48
2022-12-11T16:05:16.030Z,44.47
2022-12-11T16:07:43.172Z,44.28
2022-12-11T16:10:14.548Z,44.18
2022-12-11T16:12:41.725Z,44.19
2022-12-11T16:15:11.110Z,44.29
2022-12-11T16:17:38.792Z,44.40
2022-12-11T16:20:07.684Z,44.74
2022-12-11T16:22:34.895Z,44.38
2022-12-11T16:25:02.058Z,44.46
2022-12-11T16:27:29.198Z,44.54
2022-12-11T16:29:56.324Z,44.45
2022-12-11T16:32:24.863Z,44.34
2022-12-11T16:34:51.975Z,44.07
2022-12-11T16:37:19.150Z,44.17
2022-12-11T16:39:46.255Z,43.85
2022-12-11T16:42:13.408Z,43.77
2022-12-11T16:44:43.975Z,43.73
2022-12-11T16:47:11.556Z,43.65
2022-12-11T16:49:40.153Z,44.00
2022-12-11T16:52:07.420Z,43.86
2022-12-11T16:54:34.935Z,44.29
2022-12-11T16:57:02.049Z,44.60
2022-12-11T16:59:35.138Z,44.44
2022-12-11T17:02:04.162Z,44.48
2022-12-11T17:04:31.287Z,44.23
2022-12-11T17:06:59.741Z,44.22
2022-12-11T17:09:26.861Z,44.37
2022-12-11T17:11:53.986Z,44.25
2022-12-11T17:14:21.084Z,44.22
2022-12-11T17:16:48.240Z,44.12
2022-12-11T17:19:15.684Z,44.09
2022-12-11T17:21:47.006Z,44.05
2022-12-11T17:24:18.287Z,44.08
2022-12-11T17:26:45.917Z,43.98
2022-12-11T17:29:13.401Z,43.79
2022-12-11T17:31:40.893Z,43.79
2022-12-11T17:34:08.153Z,43.80
2022-12-11T17:36:35.266Z,43.80
2022-12-11T17:39:02.410Z,43.71
2022-12-11T17:41:30.883Z,43.64
2022-12-11T17:43:58.012Z,43.68
2022-12-11T17:46:25.352Z,43.63
2022-12-11T17:48:52.479Z,43.66
2022-12-11T17:51:19.634Z,43.53
2022-12-11T17:53:47.085Z,43.46
2022-12-11T17:56:14.209Z,43.42
2022-12-11T17:58:42.683Z,43.50
2022-12-11T18:01:10.782Z,43.41
2022-12-11T18:03:38.260Z,43.44
2022-12-11T18:06:07.870Z,43.48
2022-12-11T18:08:35.058Z,43.21
2022-12-11T18:11:06.854Z,43.01
2022-12-11T18:13:34.585Z,43.05
2022-12-11T18:16:05.566Z,43.10
2022-12-11T18:18:32.749Z,42.98
2022-12-11T18:21:00.275Z,42.98
2022-12-11T18:23:27.791Z,42.86
2022-12-11T18:25:54.912Z,42.84
2022-12-11T18:28:22.179Z,42.75
2022-12-11T18:30:49.432Z,42.78
2022-12-11T18:33:17.911Z,42.74
2022-12-11T18:35:45.063Z,42.78
2022-12-11T18:38:12.169Z,42.70
2022-12-11T18:40:39.351Z,42.71
2022-12-11T18:43:06.465Z,42.68
2022-12-11T18:45:33.596Z,42.59
2022-12-11T18:48:00.713Z,42.54
2022-12-11T18:50:29.640Z,42.56
2022-12-11T18:52:56.752Z,42.63
2022-12-11T18:55:23.880Z,42.56
2022-12-11T18:57:51.085Z,42.44
2022-12-11T19:00:18.681Z,42.40
2022-12-11T19:02:45.875Z,42.48
2022-12-11T19:05:13.517Z,42.26
2022-12-11T19:07:42.209Z,42.25
2022-12-11T19:10:10.007Z,42.17
2022-12-11T19:12:37.139Z,42.05
2022-12-11T19:15:05.121Z,42.14
2022-12-11T19:17:32.290Z,42.16
2022-12-11T19:20:05.257Z,42.02
2022-12-11T19:22:36.655Z,41.95
2022-12-11T19:25:06.605Z,41.95
2022-12-11T19:27:33.739Z,41.94
2022-12-11T19:30:00.853Z,42.03
2022-12-11T19:32:30.813Z,41.87
2022-12-11T19:35:01.894Z,41.96
2022-12-11T19:37:29.040Z,41.82
2022-12-11T19:39:56.150Z,41.93
2022-12-11T19:42:26.163Z,42.02
2022-12-11T19:44:53.316Z,41.88
2022-12-11T19:47:20.455Z,41.79
2022-12-11T19:49:47.561Z,41.69
2022-12-11T19:52:14.923Z,41.60
2022-12-11T19:54:42.035Z,41.68
2022-12-11T19:57:09.136Z,41.70
2022-12-11T19:59:37.865Z,41.65
2022-12-11T20:02:05.063Z,41.74
2022-12-11T20:04:32.214Z,41.68
2022-12-11T20:06:59.397Z,41.53
2022-12-11T20:09:26.522Z,41.49
2022-12-11T20:11:53.696Z,41.49
2022-12-11T20:14:23.584Z,41.37
2022-12-11T20:19:39.804Z,41.45
2022-12-11T20:22:06.977Z,41.45
2022-12-11T20:24:34.093Z,41.30
2022-12-11T20:27:01.226Z,41.37
2022-12-11T20:29:28.367Z,41.25
2022-12-11T20:31:57.007Z,41.38
2022-12-11T20:34:24.139Z,41.33
2022-12-11T20:36:52.143Z,41.40
2022-12-11T20:39:19.303Z,41.26
2022-12-11T20:41:46.429Z,41.13
2022-12-11T20:44:13.676Z,41.11
2022-12-11T20:46:40.793Z,41.00
2022-12-11T20:49:09.457Z,41.11
2022-12-11T20:51:36.619Z,41.16
2022-12-11T20:54:04.033Z,41.19
2022-12-11T20:56:31.544Z,41.13
2022-12-11T20:58:59.988Z,41.11
2022-12-11T21:01:30.021Z,41.15
2022-12-11T21:03:57.455Z,41.06
2022-12-11T21:06:27.817Z,40.90
2022-12-11T21:08:54.929Z,40.89
2022-12-11T21:11:22.527Z,40.92
2022-12-11T21:13:49.871Z,40.95
2022-12-11T21:16:17.089Z,40.90
2022-12-11T21:18:44.294Z,40.93
2022-12-11T21:21:11.395Z,40.89
2022-12-11T21:23:39.924Z,40.88
2022-12-11T21:26:07.182Z,41.10
2022-12-11T21:28:35.763Z,40.81
2022-12-11T21:31:06.625Z,40.95
2022-12-11T21:33:33.855Z,40.95
2022-12-11T21:36:01.365Z,40.87
2022-12-11T21:38:28.820Z,40.86
2022-12-11T21:40:57.498Z,40.88
2022-12-11T21:43:24.614Z,40.81
2022-12-11T21:46:00.971Z,40.74
2022-12-11T21:48:29.148Z,40.63
2022-12-11T21:51:05.210Z,40.69
2022-12-11T21:53:32.533Z,40.60
2022-12-11T21:56:04.983Z,40.49
2022-12-11T21:58:32.086Z,40.58
2022-12-11T22:00:59.475Z,40.32
2022-12-11T22:03:26.637Z,40.51
2022-12-11T22:05:53.775Z,40.52
2022-12-11T22:08:21.235Z,40.47
2022-12-11T22:10:49.273Z,40.59
2022-12-11T22:13:17.755Z,40.55
2022-12-11T22:15:44.895Z,40.56
2022-12-11T22:18:12.012Z,40.39
2022-12-11T22:20:39.129Z,40.54
2022-12-11T22:23:06.250Z,40.56
2022-12-11T22:25:33.342Z,40.49
2022-12-11T22:28:00.470Z,40.39
2022-12-11T22:30:29.007Z,40.45
2022-12-11T22:32:56.156Z,40.39
2022-12-11T22:35:27.162Z,40.43
2022-12-11T22:37:54.770Z,40.45
2022-12-11T22:40:21.874Z,40.35
2022-12-11T22:42:49.215Z,40.15
2022-12-11T22:45:16.429Z,40.17
2022-12-11T22:47:44.964Z,40.24
2022-12-11T22:50:13.059Z,40.27
2022-12-11T22:52:40.520Z,40.24
2022-12-11T22:55:08.457Z,40.10
2022-12-11T22:57:35.957Z,39.99
2022-12-11T23:00:04.443Z,40.17
2022-12-11T23:02:31.631Z,40.22
2022-12-11T23:05:00.190Z,40.25
2022-12-11T23:07:27.478Z,40.34
2022-12-11T23:09:54.624Z,40.17
2022-12-11T23:12:21.893Z,40.04
2022-12-11T23:14:49.326Z,40.11
2022-12-11T23:17:16.587Z,40.14
2022-12-11T23:19:43.873Z,40.09
2022-12-11T23:22:12.431Z,39.96
2022-12-11T23:24:39.912Z,40.03
2022-12-11T23:27:07.370Z,40.00
2022-12-11T23:29:34.518Z,39.88
2022-12-11T23:32:02.516Z,39.86
2022-12-11T23:34:29.705Z,39.78
2022-12-11T23:36:56.844Z,39.88
2022-12-11T23:39:25.366Z,39.75
2022-12-11T23:41:52.468Z,39.90
2022-12-11T23:44:19.626Z,39.98
2022-12-11T23:46:46.801Z,39.80
2022-12-11T23:49:13.927Z,39.83
2022-12-11T23:51:41.048Z,39.93
2022-12-11T23:54:08.171Z,39.86
2022-12-11T23:56:36.650Z,39.83
2022-12-11T23:59:03.791Z,39.87
